sensor_id;sensor_type;location;lat;lon;timestamp;P1;durP1;ratioP1;P2;durP2;ratioP2
56653;SDS011;45096;52.302;4.634;2022-09-02T00:00:23;1.38;;;0.70;;
56653;SDS011;45096;52.302;4.634;2022-09-02T00:02:48;0.98;;;0.98;;
56653;SDS011;45096;52.302;4.634;2022-09-02T00:05:14;1.23;;;1.05;;
56653;SDS011;45096;52.302;4.634;2022-09-02T00:07:39;1.02;;;1.02;;
56653;SDS011;45096;52.302;4.634;2022-09-02T00:10:06;1.92;;;0.88;;
56653;SDS011;45096;52.302;4.634;2022-09-02T00:12:32;1.00;;;1.00;;
56653;SDS011;45096;52.302;4.634;2022-09-02T00:14:58;0.98;;;0.98;;
56653;SDS011;45096;52.302;4.634;2022-09-02T00:17:23;2.67;;;1.27;;
56653;SDS011;45096;52.302;4.634;2022-09-02T00:19:48;2.17;;;1.00;;
56653;SDS011;45096;52.302;4.634;2022-09-02T00:22:14;1.38;;;0.90;;
56653;SDS011;45096;52.302;4.634;2022-09-02T00:24:39;1.65;;;0.90;;
56653;SDS011;45096;52.302;4.634;2022-09-02T00:27:06;1.20;;;1.10;;
56653;SDS011;45096;52.302;4.634;2022-09-02T00:29:31;1.67;;;1.20;;
56653;SDS011;45096;52.302;4.634;2022-09-02T00:31:57;0.73;;;0.73;;
56653;SDS011;45096;52.302;4.634;2022-09-02T00:34:22;1.55;;;1.05;;
56653;SDS011;45096;52.302;4.634;2022-09-02T00:36:48;1.70;;;0.80;;
56653;SDS011;45096;52.302;4.634;2022-09-02T00:39:13;1.20;;;1.10;;
56653;SDS011;45096;52.302;4.634;2022-09-02T00:41:39;1.08;;;0.88;;
56653;SDS011;45096;52.302;4.634;2022-09-02T00:44:08;1.38;;;0.90;;
56653;SDS011;45096;52.302;4.634;2022-09-02T00:46:34;0.88;;;0.88;;
56653;SDS011;45096;52.302;4.634;2022-09-02T00:49:02;1.10;;;1.00;;
56653;SDS011;45096;52.302;4.634;2022-09-02T00:51:30;0.77;;;0.77;;
56653;SDS011;45096;52.302;4.634;2022-09-02T00:53:57;1.02;;;1.02;;
56653;SDS011;45096;52.302;4.634;2022-09-02T00:56:24;1.13;;;1.02;;
56653;SDS011;45096;52.302;4.634;2022-09-02T00:58:51;0.70;;;0.70;;
56653;SDS011;45096;52.302;4.634;2022-09-02T01:01:18;1.17;;;0.82;;
56653;SDS011;45096;52.302;4.634;2022-09-02T01:03:44;1.00;;;1.00;;
56653;SDS011;45096;52.302;4.634;2022-09-02T01:06:10;0.70;;;0.70;;
56653;SDS011;45096;52.302;4.634;2022-09-02T01:08:36;0.88;;;0.88;;
56653;SDS011;45096;52.302;4.634;2022-09-02T01:11:02;0.75;;;0.75;;
56653;SDS011;45096;52.302;4.634;2022-09-02T01:13:28;1.17;;;1.08;;
56653;SDS011;45096;52.302;4.634;2022-09-02T01:15:55;0.63;;;0.63;;
56653;SDS011;45096;52.302;4.634;2022-09-02T01:18:25;1.75;;;1.02;;
56653;SDS011;45096;52.302;4.634;2022-09-02T01:20:51;0.80;;;0.80;;
56653;SDS011;45096;52.302;4.634;2022-09-02T01:23:18;0.90;;;0.80;;
56653;SDS011;45096;52.302;4.634;2022-09-02T01:25:44;1.17;;;0.70;;
56653;SDS011;45096;52.302;4.634;2022-09-02T01:28:10;1.65;;;1.00;;
56653;SDS011;45096;52.302;4.634;2022-09-02T01:30:37;0.82;;;0.80;;
56653;SDS011;45096;52.302;4.634;2022-09-02T01:33:04;0.82;;;0.82;;
56653;SDS011;45096;52.302;4.634;2022-09-02T01:35:29;0.73;;;0.73;;
56653;SDS011;45096;52.302;4.634;2022-09-02T01:37:56;0.98;;;0.95;;
56653;SDS011;45096;52.302;4.634;2022-09-02T01:40:24;0.60;;;0.60;;
56653;SDS011;45096;52.302;4.634;2022-09-02T01:42:52;1.00;;;1.00;;
56653;SDS011;45096;52.302;4.634;2022-09-02T01:45:19;0.70;;;0.70;;
56653;SDS011;45096;52.302;4.634;2022-09-02T01:47:44;0.82;;;0.82;;
56653;SDS011;45096;52.302;4.634;2022-09-02T01:50:10;1.05;;;1.05;;
56653;SDS011;45096;52.302;4.634;2022-09-02T01:52:35;2.45;;;0.95;;
56653;SDS011;45096;52.302;4.634;2022-09-02T01:55:01;1.20;;;1.10;;
56653;SDS011;45096;52.302;4.634;2022-09-02T01:57:28;0.93;;;0.93;;
56653;SDS011;45096;52.302;4.634;2022-09-02T01:59:54;0.93;;;0.82;;
56653;SDS011;45096;52.302;4.634;2022-09-02T02:02:20;1.40;;;1.30;;
56653;SDS011;45096;52.302;4.634;2022-09-02T02:04:46;0.70;;;0.70;;
56653;SDS011;45096;52.302;4.634;2022-09-02T02:07:12;0.70;;;0.70;;
56653;SDS011;45096;52.302;4.634;2022-09-02T02:09:38;0.90;;;0.90;;
56653;SDS011;45096;52.302;4.634;2022-09-02T02:12:03;0.80;;;0.80;;
56653;SDS011;45096;52.302;4.634;2022-09-02T02:14:31;3.20;;;0.90;;
56653;SDS011;45096;52.302;4.634;2022-09-02T02:16:56;0.85;;;0.85;;
56653;SDS011;45096;52.302;4.634;2022-09-02T02:19:21;0.82;;;0.82;;
56653;SDS011;45096;52.302;4.634;2022-09-02T02:21:47;1.00;;;1.00;;
56653;SDS011;45096;52.302;4.634;2022-09-02T02:24:12;0.68;;;0.60;;
56653;SDS011;45096;52.302;4.634;2022-09-02T02:26:38;0.82;;;0.82;;
56653;SDS011;45096;52.302;4.634;2022-09-02T02:29:03;1.55;;;0.90;;
56653;SDS011;45096;52.302;4.634;2022-09-02T02:31:30;1.50;;;1.02;;
56653;SDS011;45096;52.302;4.634;2022-09-02T02:33:56;0.70;;;0.70;;
56653;SDS011;45096;52.302;4.634;2022-09-02T02:36:21;0.70;;;0.70;;
56653;SDS011;45096;52.302;4.634;2022-09-02T02:38:47;0.80;;;0.80;;
56653;SDS011;45096;52.302;4.634;2022-09-02T02:41:12;0.57;;;0.57;;
56653;SDS011;45096;52.302;4.634;2022-09-02T02:43:39;1.00;;;1.00;;
56653;SDS011;45096;52.302;4.634;2022-09-02T02:46:05;0.77;;;0.77;;
56653;SDS011;45096;52.302;4.634;2022-09-02T02:48:32;0.70;;;0.70;;
56653;SDS011;45096;52.302;4.634;2022-09-02T02:50:58;0.88;;;0.52;;
56653;SDS011;45096;52.302;4.634;2022-09-02T02:53:24;1.25;;;0.82;;
56653;SDS011;45096;52.302;4.634;2022-09-02T02:55:49;0.85;;;0.77;;
56653;SDS011;45096;52.302;4.634;2022-09-02T02:58:15;0.70;;;0.70;;
56653;SDS011;45096;52.302;4.634;2022-09-02T03:00:40;0.63;;;0.63;;
56653;SDS011;45096;52.302;4.634;2022-09-02T03:03:07;1.48;;;0.85;;
56653;SDS011;45096;52.302;4.634;2022-09-02T03:05:35;0.60;;;0.60;;
56653;SDS011;45096;52.302;4.634;2022-09-02T03:08:02;0.80;;;0.80;;
56653;SDS011;45096;52.302;4.634;2022-09-02T03:10:28;0.88;;;0.88;;
56653;SDS011;45096;52.302;4.634;2022-09-02T03:12:54;0.60;;;0.60;;
56653;SDS011;45096;52.302;4.634;2022-09-02T03:15:19;0.70;;;0.70;;
56653;SDS011;45096;52.302;4.634;2022-09-02T03:17:46;1.17;;;0.60;;
56653;SDS011;45096;52.302;4.634;2022-09-02T03:20:12;0.77;;;0.77;;
56653;SDS011;45096;52.302;4.634;2022-09-02T03:22:39;0.63;;;0.63;;
56653;SDS011;45096;52.302;4.634;2022-09-02T03:25:05;1.45;;;0.60;;
56653;SDS011;45096;52.302;4.634;2022-09-02T03:27:32;0.75;;;0.70;;
56653;SDS011;45096;52.302;4.634;2022-09-02T03:29:57;0.57;;;0.57;;
56653;SDS011;45096;52.302;4.634;2022-09-02T03:32:23;0.70;;;0.70;;
56653;SDS011;45096;52.302;4.634;2022-09-02T03:34:48;0.93;;;0.93;;
56653;SDS011;45096;52.302;4.634;2022-09-02T03:37:14;0.50;;;0.50;;
56653;SDS011;45096;52.302;4.634;2022-09-02T03:39:41;0.75;;;0.75;;
56653;SDS011;45096;52.302;4.634;2022-09-02T03:42:06;0.95;;;0.60;;
56653;SDS011;45096;52.302;4.634;2022-09-02T03:44:32;0.70;;;0.70;;
56653;SDS011;45096;52.302;4.634;2022-09-02T03:46:57;0.70;;;0.70;;
56653;SDS011;45096;52.302;4.634;2022-09-02T03:49:23;0.75;;;0.75;;
56653;SDS011;45096;52.302;4.634;2022-09-02T03:51:48;1.05;;;0.90;;
56653;SDS011;45096;52.302;4.634;2022-09-02T03:54:13;0.77;;;0.77;;
56653;SDS011;45096;52.302;4.634;2022-09-02T03:56:40;0.90;;;0.90;;
56653;SDS011;45096;52.302;4.634;2022-09-02T03:59:06;1.05;;;0.95;;
56653;SDS011;45096;52.302;4.634;2022-09-02T04:01:31;3.45;;;1.13;;
56653;SDS011;45096;52.302;4.634;2022-09-02T04:03:57;0.90;;;0.90;;
56653;SDS011;45096;52.302;4.634;2022-09-02T04:06:22;0.90;;;0.90;;
56653;SDS011;45096;52.302;4.634;2022-09-02T04:08:48;0.98;;;0.85;;
56653;SDS011;45096;52.302;4.634;2022-09-02T04:11:14;2.63;;;1.17;;
56653;SDS011;45096;52.302;4.634;2022-09-02T04:13:42;0.93;;;0.93;;
56653;SDS011;45096;52.302;4.634;2022-09-02T04:16:08;2.47;;;0.95;;
56653;SDS011;45096;52.302;4.634;2022-09-02T04:18:35;1.73;;;0.93;;
56653;SDS011;45096;52.302;4.634;2022-09-02T04:21:01;0.70;;;0.70;;
56653;SDS011;45096;52.302;4.634;2022-09-02T04:23:26;0.98;;;0.98;;
56653;SDS011;45096;52.302;4.634;2022-09-02T04:25:52;0.80;;;0.80;;
56653;SDS011;45096;52.302;4.634;2022-09-02T04:28:18;1.25;;;0.90;;
56653;SDS011;45096;52.302;4.634;2022-09-02T04:30:44;0.90;;;0.90;;
56653;SDS011;45096;52.302;4.634;2022-09-02T04:33:10;0.98;;;0.90;;
56653;SDS011;45096;52.302;4.634;2022-09-02T04:35:38;1.05;;;1.00;;
56653;SDS011;45096;52.302;4.634;2022-09-02T04:38:04;1.00;;;0.90;;
56653;SDS011;45096;52.302;4.634;2022-09-02T04:40:29;1.35;;;1.25;;
56653;SDS011;45096;52.302;4.634;2022-09-02T04:42:54;1.75;;;1.13;;
56653;SDS011;45096;52.302;4.634;2022-09-02T04:45:20;0.82;;;0.82;;
56653;SDS011;45096;52.302;4.634;2022-09-02T04:47:46;1.27;;;1.17;;
56653;SDS011;45096;52.302;4.634;2022-09-02T04:50:12;1.02;;;0.93;;
56653;SDS011;45096;52.302;4.634;2022-09-02T04:52:37;2.38;;;1.00;;
56653;SDS011;45096;52.302;4.634;2022-09-02T04:55:03;1.38;;;1.00;;
56653;SDS011;45096;52.302;4.634;2022-09-02T04:57:29;1.23;;;0.90;;
56653;SDS011;45096;52.302;4.634;2022-09-02T04:59:54;0.80;;;0.80;;
56653;SDS011;45096;52.302;4.634;2022-09-02T05:02:20;0.82;;;0.82;;
56653;SDS011;45096;52.302;4.634;2022-09-02T05:04:47;0.98;;;0.93;;
56653;SDS011;45096;52.302;4.634;2022-09-02T05:07:12;1.27;;;1.00;;
56653;SDS011;45096;52.302;4.634;2022-09-02T05:09:38;1.38;;;1.10;;
56653;SDS011;45096;52.302;4.634;2022-09-02T05:12:03;1.17;;;0.90;;
56653;SDS011;45096;52.302;4.634;2022-09-02T05:14:29;1.30;;;1.20;;
56653;SDS011;45096;52.302;4.634;2022-09-02T05:16:55;1.83;;;1.00;;
56653;SDS011;45096;52.302;4.634;2022-09-02T05:19:20;1.00;;;1.00;;
56653;SDS011;45096;52.302;4.634;2022-09-02T05:21:48;1.00;;;1.00;;
56653;SDS011;45096;52.302;4.634;2022-09-02T05:24:14;1.77;;;1.35;;
56653;SDS011;45096;52.302;4.634;2022-09-02T05:26:39;0.75;;;0.73;;
56653;SDS011;45096;52.302;4.634;2022-09-02T05:29:05;1.10;;;1.00;;
56653;SDS011;45096;52.302;4.634;2022-09-02T05:31:30;1.00;;;1.00;;
56653;SDS011;45096;52.302;4.634;2022-09-02T05:33:56;0.88;;;0.88;;
56653;SDS011;45096;52.302;4.634;2022-09-02T05:36:21;0.90;;;0.90;;
56653;SDS011;45096;52.302;4.634;2022-09-02T05:38:48;0.90;;;0.90;;
56653;SDS011;45096;52.302;4.634;2022-09-02T05:41:14;2.47;;;1.10;;
56653;SDS011;45096;52.302;4.634;2022-09-02T05:43:42;1.00;;;1.00;;
56653;SDS011;45096;52.302;4.634;2022-09-02T05:46:08;0.82;;;0.82;;
56653;SDS011;45096;52.302;4.634;2022-09-02T05:48:35;0.80;;;0.80;;
56653;SDS011;45096;52.302;4.634;2022-09-02T05:51:02;0.73;;;0.73;;
56653;SDS011;45096;52.302;4.634;2022-09-02T05:53:28;0.50;;;0.50;;
56653;SDS011;45096;52.302;4.634;2022-09-02T05:55:55;0.80;;;0.80;;
56653;SDS011;45096;52.302;4.634;2022-09-02T05:58:20;1.02;;;0.88;;
56653;SDS011;45096;52.302;4.634;2022-09-02T06:00:46;0.60;;;0.60;;
56653;SDS011;45096;52.302;4.634;2022-09-02T06:03:11;1.00;;;1.00;;
56653;SDS011;45096;52.302;4.634;2022-09-02T06:05:37;1.83;;;0.90;;
56653;SDS011;45096;52.302;4.634;2022-09-02T06:08:02;0.88;;;0.88;;
56653;SDS011;45096;52.302;4.634;2022-09-02T06:10:27;0.95;;;0.93;;
56653;SDS011;45096;52.302;4.634;2022-09-02T06:12:54;0.82;;;0.82;;
56653;SDS011;45096;52.302;4.634;2022-09-02T06:15:20;1.33;;;0.98;;
56653;SDS011;45096;52.302;4.634;2022-09-02T06:17:45;1.17;;;1.13;;
56653;SDS011;45096;52.302;4.634;2022-09-02T06:20:11;1.60;;;0.90;;
56653;SDS011;45096;52.302;4.634;2022-09-02T06:22:36;1.13;;;1.00;;
56653;SDS011;45096;52.302;4.634;2022-09-02T06:25:02;3.60;;;1.00;;
56653;SDS011;45096;52.302;4.634;2022-09-02T06:27:27;1.05;;;0.80;;
56653;SDS011;45096;52.302;4.634;2022-09-02T06:29:54;1.77;;;0.90;;
56653;SDS011;45096;52.302;4.634;2022-09-02T06:32:19;0.82;;;0.82;;
56653;SDS011;45096;52.302;4.634;2022-09-02T06:34:45;1.27;;;1.15;;
56653;SDS011;45096;52.302;4.634;2022-09-02T06:37:10;1.40;;;0.98;;
56653;SDS011;45096;52.302;4.634;2022-09-02T06:39:36;1.30;;;1.08;;
56653;SDS011;45096;52.302;4.634;2022-09-02T06:42:01;1.08;;;0.80;;
56653;SDS011;45096;52.302;4.634;2022-09-02T06:44:27;0.85;;;0.75;;
56653;SDS011;45096;52.302;4.634;2022-09-02T06:46:55;1.55;;;0.90;;
56653;SDS011;45096;52.302;4.634;2022-09-02T06:49:22;1.23;;;0.80;;
56653;SDS011;45096;52.302;4.634;2022-09-02T06:51:48;0.90;;;0.80;;
56653;SDS011;45096;52.302;4.634;2022-09-02T06:54:15;1.60;;;0.88;;
56653;SDS011;45096;52.302;4.634;2022-09-02T06:56:42;0.82;;;0.82;;
56653;SDS011;45096;52.302;4.634;2022-09-02T06:59:08;1.05;;;0.95;;
56653;SDS011;45096;52.302;4.634;2022-09-02T07:01:34;1.45;;;1.35;;
56653;SDS011;45096;52.302;4.634;2022-09-02T07:04:01;0.77;;;0.77;;
56653;SDS011;45096;52.302;4.634;2022-09-02T07:06:27;2.72;;;0.90;;
56653;SDS011;45096;52.302;4.634;2022-09-02T07:08:52;0.82;;;0.82;;
56653;SDS011;45096;52.302;4.634;2022-09-02T07:11:18;1.35;;;0.88;;
56653;SDS011;45096;52.302;4.634;2022-09-02T07:13:44;1.40;;;0.95;;
56653;SDS011;45096;52.302;4.634;2022-09-02T07:16:10;1.00;;;0.75;;
56653;SDS011;45096;52.302;4.634;2022-09-02T07:18:36;0.80;;;0.80;;
56653;SDS011;45096;52.302;4.634;2022-09-02T07:21:03;0.80;;;0.80;;
56653;SDS011;45096;52.302;4.634;2022-09-02T07:23:28;0.80;;;0.80;;
56653;SDS011;45096;52.302;4.634;2022-09-02T07:25:54;1.67;;;0.80;;
56653;SDS011;45096;52.302;4.634;2022-09-02T07:28:19;0.73;;;0.73;;
56653;SDS011;45096;52.302;4.634;2022-09-02T07:30:44;0.88;;;0.88;;
56653;SDS011;45096;52.302;4.634;2022-09-02T07:33:10;3.47;;;0.80;;
56653;SDS011;45096;52.302;4.634;2022-09-02T07:35:36;0.88;;;0.70;;
56653;SDS011;45096;52.302;4.634;2022-09-02T07:38:03;1.13;;;0.85;;
56653;SDS011;45096;52.302;4.634;2022-09-02T07:40:28;0.80;;;0.80;;
56653;SDS011;45096;52.302;4.634;2022-09-02T07:42:54;1.05;;;0.70;;
56653;SDS011;45096;52.302;4.634;2022-09-02T07:45:19;1.25;;;0.77;;
56653;SDS011;45096;52.302;4.634;2022-09-02T07:47:45;0.80;;;0.80;;
56653;SDS011;45096;52.302;4.634;2022-09-02T07:50:10;2.95;;;1.00;;
56653;SDS011;45096;52.302;4.634;2022-09-02T07:52:36;1.85;;;0.93;;
56653;SDS011;45096;52.302;4.634;2022-09-02T07:55:03;0.85;;;0.85;;
56653;SDS011;45096;52.302;4.634;2022-09-02T07:57:29;1.15;;;0.90;;
56653;SDS011;45096;52.302;4.634;2022-09-02T07:59:54;0.90;;;0.90;;
56653;SDS011;45096;52.302;4.634;2022-09-02T08:02:19;0.70;;;0.70;;
56653;SDS011;45096;52.302;4.634;2022-09-02T08:04:45;1.15;;;0.80;;
56653;SDS011;45096;52.302;4.634;2022-09-02T08:07:10;1.05;;;0.88;;
56653;SDS011;45096;52.302;4.634;2022-09-02T08:09:36;0.70;;;0.70;;
56653;SDS011;45096;52.302;4.634;2022-09-02T08:12:03;3.72;;;1.20;;
56653;SDS011;45096;52.302;4.634;2022-09-02T08:14:29;2.58;;;1.00;;
56653;SDS011;45096;52.302;4.634;2022-09-02T08:16:55;1.00;;;1.00;;
56653;SDS011;45096;52.302;4.634;2022-09-02T08:19:21;1.20;;;1.10;;
56653;SDS011;45096;52.302;4.634;2022-09-02T08:21:47;1.52;;;1.10;;
56653;SDS011;45096;52.302;4.634;2022-09-02T08:24:12;1.00;;;1.00;;
56653;SDS011;45096;52.302;4.634;2022-09-02T08:26:38;0.93;;;0.93;;
56653;SDS011;45096;52.302;4.634;2022-09-02T08:29:05;1.35;;;1.27;;
56653;SDS011;45096;52.302;4.634;2022-09-02T08:31:32;1.08;;;1.00;;
56653;SDS011;45096;52.302;4.634;2022-09-02T08:33:57;1.42;;;0.95;;
56653;SDS011;45096;52.302;4.634;2022-09-02T08:36:23;1.00;;;1.00;;
56653;SDS011;45096;52.302;4.634;2022-09-02T08:38:48;1.25;;;0.90;;
56653;SDS011;45096;52.302;4.634;2022-09-02T08:41:16;1.27;;;1.13;;
56653;SDS011;45096;52.302;4.634;2022-09-02T08:43:45;1.00;;;1.00;;
56653;SDS011;45096;52.302;4.634;2022-09-02T08:46:13;0.90;;;0.90;;
56653;SDS011;45096;52.302;4.634;2022-09-02T08:48:41;0.90;;;0.90;;
56653;SDS011;45096;52.302;4.634;2022-09-02T08:51:10;1.48;;;1.00;;
56653;SDS011;45096;52.302;4.634;2022-09-02T08:53:42;1.95;;;1.00;;
56653;SDS011;45096;52.302;4.634;2022-09-02T08:56:08;1.20;;;1.10;;
56653;SDS011;45096;52.302;4.634;2022-09-02T08:58:35;1.23;;;1.05;;
56653;SDS011;45096;52.302;4.634;2022-09-02T09:01:05;1.17;;;1.10;;
56653;SDS011;45096;52.302;4.634;2022-09-02T09:03:37;1.10;;;0.98;;
56653;SDS011;45096;52.302;4.634;2022-09-02T09:06:07;1.48;;;1.40;;
56653;SDS011;45096;52.302;4.634;2022-09-02T09:08:37;1.05;;;0.90;;
56653;SDS011;45096;52.302;4.634;2022-09-02T09:11:10;2.30;;;0.93;;
56653;SDS011;45096;52.302;4.634;2022-09-02T09:16:27;0.90;;;0.90;;
56653;SDS011;45096;52.302;4.634;2022-09-02T09:19:00;1.27;;;1.23;;
56653;SDS011;45096;52.302;4.634;2022-09-02T09:21:29;1.15;;;1.10;;
56653;SDS011;45096;52.302;4.634;2022-09-02T09:23:55;1.13;;;1.10;;
56653;SDS011;45096;52.302;4.634;2022-09-02T09:26:22;1.33;;;1.00;;
56653;SDS011;45096;52.302;4.634;2022-09-02T09:28:51;2.50;;;1.70;;
56653;SDS011;45096;52.302;4.634;2022-09-02T09:31:17;2.22;;;1.55;;
56653;SDS011;45096;52.302;4.634;2022-09-02T09:33:56;0.90;;;0.90;;
56653;SDS011;45096;52.302;4.634;2022-09-02T09:36:42;0.90;;;0.90;;
56653;SDS011;45096;52.302;4.634;2022-09-02T09:39:22;1.45;;;1.35;;
56653;SDS011;45096;52.302;4.634;2022-09-02T09:41:49;1.50;;;1.40;;
56653;SDS011;45096;52.302;4.634;2022-09-02T09:47:15;1.27;;;1.20;;
56653;SDS011;45096;52.302;4.634;2022-09-02T09:49:41;2.10;;;1.05;;
56653;SDS011;45096;52.302;4.634;2022-09-02T09:52:08;0.90;;;0.90;;
56653;SDS011;45096;52.302;4.634;2022-09-02T09:54:33;1.75;;;1.30;;
56653;SDS011;45096;52.302;4.634;2022-09-02T09:57:11;1.52;;;1.42;;
56653;SDS011;45096;52.302;4.634;2022-09-02T09:59:40;2.58;;;1.45;;
56653;SDS011;45096;52.302;4.634;2022-09-02T10:02:09;2.55;;;1.40;;
56653;SDS011;45096;52.302;4.634;2022-09-02T10:04:42;2.55;;;1.20;;
56653;SDS011;45096;52.302;4.634;2022-09-02T10:07:09;1.27;;;1.27;;
56653;SDS011;45096;52.302;4.634;2022-09-02T10:09:35;1.25;;;1.20;;
56653;SDS011;45096;52.302;4.634;2022-09-02T10:12:01;1.52;;;1.42;;
56653;SDS011;45096;52.302;4.634;2022-09-02T10:14:30;1.50;;;1.40;;
56653;SDS011;45096;52.302;4.634;2022-09-02T10:16:59;2.30;;;1.30;;
56653;SDS011;45096;52.302;4.634;2022-09-02T10:19:32;1.45;;;1.35;;
56653;SDS011;45096;52.302;4.634;2022-09-02T10:22:05;1.17;;;1.13;;
56653;SDS011;45096;52.302;4.634;2022-09-02T10:24:50;2.00;;;1.60;;
56653;SDS011;45096;52.302;4.634;2022-09-02T10:27:26;1.35;;;1.25;;
56653;SDS011;45096;52.302;4.634;2022-09-02T10:29:57;3.10;;;1.55;;
56653;SDS011;45096;52.302;4.634;2022-09-02T10:32:34;2.50;;;1.10;;
56653;SDS011;45096;52.302;4.634;2022-09-02T10:35:07;2.05;;;1.42;;
56653;SDS011;45096;52.302;4.634;2022-09-02T10:37:39;1.30;;;1.30;;
56653;SDS011;45096;52.302;4.634;2022-09-02T10:40:11;1.77;;;1.30;;
56653;SDS011;45096;52.302;4.634;2022-09-02T10:42:46;1.58;;;1.35;;
56653;SDS011;45096;52.302;4.634;2022-09-02T10:45:15;1.52;;;1.42;;
56653;SDS011;45096;52.302;4.634;2022-09-02T10:47:48;2.67;;;1.27;;
56653;SDS011;45096;52.302;4.634;2022-09-02T10:50:20;1.35;;;1.25;;
56653;SDS011;45096;52.302;4.634;2022-09-02T10:52:55;3.65;;;1.60;;
56653;SDS011;45096;52.302;4.634;2022-09-02T10:55:41;1.42;;;1.30;;
56653;SDS011;45096;52.302;4.634;2022-09-02T10:58:10;1.60;;;1.50;;
56653;SDS011;45096;52.302;4.634;2022-09-02T11:00:39;1.73;;;1.30;;
56653;SDS011;45096;52.302;4.634;2022-09-02T11:03:10;1.92;;;1.42;;
56653;SDS011;45096;52.302;4.634;2022-09-02T11:05:40;2.85;;;1.75;;
56653;SDS011;45096;52.302;4.634;2022-09-02T11:08:09;2.83;;;1.83;;
56653;SDS011;45096;52.302;4.634;2022-09-02T11:10:37;1.77;;;1.40;;
56653;SDS011;45096;52.302;4.634;2022-09-02T11:13:07;2.70;;;1.23;;
56653;SDS011;45096;52.302;4.634;2022-09-02T11:15:40;1.90;;;1.73;;
56653;SDS011;45096;52.302;4.634;2022-09-02T11:18:10;2.33;;;1.38;;
56653;SDS011;45096;52.302;4.634;2022-09-02T11:20:40;1.50;;;1.40;;
56653;SDS011;45096;52.302;4.634;2022-09-02T11:23:14;2.60;;;1.20;;
56653;SDS011;45096;52.302;4.634;2022-09-02T11:25:44;1.52;;;1.42;;
56653;SDS011;45096;52.302;4.634;2022-09-02T11:28:19;1.45;;;1.35;;
56653;SDS011;45096;52.302;4.634;2022-09-02T11:30:50;2.83;;;1.30;;
56653;SDS011;45096;52.302;4.634;2022-09-02T11:33:18;2.90;;;1.55;;
56653;SDS011;45096;52.302;4.634;2022-09-02T11:35:45;2.17;;;1.52;;
56653;SDS011;45096;52.302;4.634;2022-09-02T11:38:17;1.80;;;1.60;;
56653;SDS011;45096;52.302;4.634;2022-09-02T11:40:58;2.20;;;1.30;;
56653;SDS011;45096;52.302;4.634;2022-09-02T11:43:45;1.60;;;1.50;;
56653;SDS011;45096;52.302;4.634;2022-09-02T11:46:26;1.58;;;1.48;;
56653;SDS011;45096;52.302;4.634;2022-09-02T11:49:02;2.00;;;1.45;;
56653;SDS011;45096;52.302;4.634;2022-09-02T11:51:45;1.55;;;1.45;;
56653;SDS011;45096;52.302;4.634;2022-09-02T11:54:23;2.70;;;1.33;;
56653;SDS011;45096;52.302;4.634;2022-09-02T11:56:53;1.75;;;1.33;;
56653;SDS011;45096;52.302;4.634;2022-09-02T11:59:22;4.55;;;1.80;;
56653;SDS011;45096;52.302;4.634;2022-09-02T12:02:08;1.73;;;1.40;;
56653;SDS011;45096;52.302;4.634;2022-09-02T12:04:34;1.73;;;1.30;;
56653;SDS011;45096;52.302;4.634;2022-09-02T12:09:49;1.63;;;1.48;;
56653;SDS011;45096;52.302;4.634;2022-09-02T12:15:12;1.63;;;1.52;;
56653;SDS011;45096;52.302;4.634;2022-09-02T12:17:43;1.95;;;1.40;;
56653;SDS011;45096;52.302;4.634;2022-09-02T12:20:11;2.47;;;1.42;;
56653;SDS011;45096;52.302;4.634;2022-09-02T12:26:14;1.60;;;1.50;;
56653;SDS011;45096;52.302;4.634;2022-09-02T12:28:41;1.63;;;1.27;;
56653;SDS011;45096;52.302;4.634;2022-09-02T12:31:08;1.60;;;1.50;;
56653;SDS011;45096;52.302;4.634;2022-09-02T12:33:38;1.50;;;1.40;;
56653;SDS011;45096;52.302;4.634;2022-09-02T12:36:05;1.15;;;1.15;;
56653;SDS011;45096;52.302;4.634;2022-09-02T12:38:31;1.17;;;1.15;;
56653;SDS011;45096;52.302;4.634;2022-09-02T12:41:12;2.40;;;1.30;;
56653;SDS011;45096;52.302;4.634;2022-09-02T12:43:45;4.57;;;1.67;;
56653;SDS011;45096;52.302;4.634;2022-09-02T12:46:17;1.33;;;1.33;;
56653;SDS011;45096;52.302;4.634;2022-09-02T12:48:47;1.92;;;1.40;;
56653;SDS011;45096;52.302;4.634;2022-09-02T12:54:13;2.35;;;1.35;;
56653;SDS011;45096;52.302;4.634;2022-09-02T12:56:42;1.90;;;1.40;;
56653;SDS011;45096;52.302;4.634;2022-09-02T12:59:11;1.45;;;1.38;;
56653;SDS011;45096;52.302;4.634;2022-09-02T13:01:50;1.55;;;1.50;;
56653;SDS011;45096;52.302;4.634;2022-09-02T13:04:36;1.85;;;1.23;;
56653;SDS011;45096;52.302;4.634;2022-09-02T13:07:13;1.33;;;1.33;;
56653;SDS011;45096;52.302;4.634;2022-09-02T13:10:13;1.35;;;1.35;;
56653;SDS011;45096;52.302;4.634;2022-09-02T13:16:14;3.05;;;1.23;;
56653;SDS011;45096;52.302;4.634;2022-09-02T13:25:10;1.48;;;1.38;;
56653;SDS011;45096;52.302;4.634;2022-09-02T13:31:14;1.40;;;1.40;;
56653;SDS011;45096;52.302;4.634;2022-09-02T13:33:44;1.50;;;1.35;;
56653;SDS011;45096;52.302;4.634;2022-09-02T13:36:10;1.40;;;1.08;;
56653;SDS011;45096;52.302;4.634;2022-09-02T13:38:35;2.17;;;1.50;;
56653;SDS011;45096;52.302;4.634;2022-09-02T13:41:01;1.52;;;1.42;;
56653;SDS011;45096;52.302;4.634;2022-09-02T13:43:26;1.30;;;1.20;;
56653;SDS011;45096;52.302;4.634;2022-09-02T13:45:52;1.40;;;1.40;;
56653;SDS011;45096;52.302;4.634;2022-09-02T13:48:21;1.40;;;1.40;;
56653;SDS011;45096;52.302;4.634;2022-09-02T13:50:47;1.40;;;1.30;;
56653;SDS011;45096;52.302;4.634;2022-09-02T13:53:16;1.13;;;1.13;;
56653;SDS011;45096;52.302;4.634;2022-09-02T13:55:48;1.20;;;1.15;;
56653;SDS011;45096;52.302;4.634;2022-09-02T13:58:19;1.20;;;1.20;;
56653;SDS011;45096;52.302;4.634;2022-09-02T14:00:47;1.30;;;1.30;;
56653;SDS011;45096;52.302;4.634;2022-09-02T14:03:14;2.10;;;1.20;;
56653;SDS011;45096;52.302;4.634;2022-09-02T14:05:42;1.42;;;1.33;;
56653;SDS011;45096;52.302;4.634;2022-09-02T14:08:10;1.73;;;1.63;;
56653;SDS011;45096;52.302;4.634;2022-09-02T14:10:37;2.85;;;1.67;;
56653;SDS011;45096;52.302;4.634;2022-09-02T14:13:03;1.45;;;1.45;;
56653;SDS011;45096;52.302;4.634;2022-09-02T14:15:31;1.80;;;1.75;;
56653;SDS011;45096;52.302;4.634;2022-09-02T14:18:07;2.22;;;1.38;;
56653;SDS011;45096;52.302;4.634;2022-09-02T14:20:37;1.10;;;1.10;;
56653;SDS011;45096;52.302;4.634;2022-09-02T14:23:04;1.40;;;1.38;;
56653;SDS011;45096;52.302;4.634;2022-09-02T14:25:31;1.50;;;1.40;;
56653;SDS011;45096;52.302;4.634;2022-09-02T14:28:00;1.60;;;1.50;;
56653;SDS011;45096;52.302;4.634;2022-09-02T14:30:29;1.58;;;1.42;;
56653;SDS011;45096;52.302;4.634;2022-09-02T14:35:40;1.52;;;1.40;;
56653;SDS011;45096;52.302;4.634;2022-09-02T14:38:06;1.60;;;1.50;;
56653;SDS011;45096;52.302;4.634;2022-09-02T14:40:32;1.30;;;1.30;;
56653;SDS011;45096;52.302;4.634;2022-09-02T14:42:59;1.35;;;1.25;;
56653;SDS011;45096;52.302;4.634;2022-09-02T14:45:26;1.23;;;1.23;;
56653;SDS011;45096;52.302;4.634;2022-09-02T14:47:52;1.35;;;1.30;;
56653;SDS011;45096;52.302;4.634;2022-09-02T14:50:18;1.23;;;1.13;;
56653;SDS011;45096;52.302;4.634;2022-09-02T14:52:47;1.55;;;1.52;;
56653;SDS011;45096;52.302;4.634;2022-09-02T14:58:07;1.50;;;1.40;;
56653;SDS011;45096;52.302;4.634;2022-09-02T15:00:32;1.60;;;1.50;;
56653;SDS011;45096;52.302;4.634;2022-09-02T15:02:58;2.70;;;1.73;;
56653;SDS011;45096;52.302;4.634;2022-09-02T15:05:24;5.32;;;1.95;;
56653;SDS011;45096;52.302;4.634;2022-09-02T15:07:50;4.75;;;2.33;;
56653;SDS011;45096;52.302;4.634;2022-09-02T15:10:15;3.75;;;2.00;;
56653;SDS011;45096;52.302;4.634;2022-09-02T15:12:43;4.18;;;1.60;;
56653;SDS011;45096;52.302;4.634;2022-09-02T15:15:12;8.05;;;1.80;;
56653;SDS011;45096;52.302;4.634;2022-09-02T15:17:37;3.15;;;2.00;;
56653;SDS011;45096;52.302;4.634;2022-09-02T15:20:03;3.67;;;1.73;;
56653;SDS011;45096;52.302;4.634;2022-09-02T15:22:29;2.08;;;1.88;;
56653;SDS011;45096;52.302;4.634;2022-09-02T15:24:54;2.05;;;1.67;;
56653;SDS011;45096;52.302;4.634;2022-09-02T15:27:19;2.85;;;1.50;;